createdAt,value
2023-06-04T00:01:01.081Z,14.82
2023-06-04T00:03:27.966Z,13.80
2023-06-04T00:05:54.692Z,14.10
2023-06-04T00:08:21.214Z,14.54
2023-06-04T00:10:47.705Z,14.37
2023-06-04T00:13:14.313Z,14.70
2023-06-04T00:15:41.079Z,14.68
2023-06-04T00:18:07.618Z,14.48
2023-06-04T00:20:34.215Z,14.29
2023-06-04T00:23:00.709Z,14.39
2023-06-04T00:25:27.153Z,14.27
2023-06-04T00:27:53.599Z,14.34
2023-06-04T00:30:20.117Z,14.01
2023-06-04T00:32:48.203Z,14.31
2023-06-04T00:35:15.311Z,14.36
2023-06-04T00:37:41.753Z,14.35
2023-06-04T00:40:08.766Z,14.31
2023-06-04T00:42:35.250Z,13.80
2023-06-04T00:45:02.369Z,14.03
2023-06-04T00:47:28.905Z,13.65
2023-06-04T00:49:57.995Z,14.02
2023-06-04T00:52:25.295Z,14.04
2023-06-04T00:54:52.970Z,13.70
2023-06-04T00:57:19.497Z,13.58
2023-06-04T00:59:46.128Z,13.87
2023-06-04T01:02:16.766Z,13.88
2023-06-04T01:04:47.404Z,13.42
2023-06-04T01:07:15.294Z,14.03
2023-06-04T01:09:41.979Z,14.02
2023-06-04T01:12:09.306Z,13.86
2023-06-04T01:14:36.699Z,13.87
2023-06-04T01:17:09.516Z,13.95
2023-06-04T01:20:02.090Z,13.94
2023-06-04T01:22:45.099Z,13.76
2023-06-04T01:25:34.606Z,13.86
2023-06-04T01:28:04.097Z,13.85
2023-06-04T01:30:35.204Z,13.59
2023-06-04T01:33:02.934Z,13.17
2023-06-04T01:35:34.182Z,13.80
2023-06-04T01:38:00.791Z,13.66
2023-06-04T01:40:27.790Z,13.65
2023-06-04T01:42:54.874Z,13.74
2023-06-04T01:45:22.816Z,13.58
2023-06-04T01:47:49.546Z,13.14
2023-06-04T01:50:16.789Z,13.48
2023-06-04T01:52:43.572Z,12.97
2023-06-04T01:55:13.216Z,13.51
2023-06-04T01:57:40.603Z,13.45
2023-06-04T02:00:13.092Z,13.25
2023-06-04T02:02:41.454Z,13.40
2023-06-04T02:05:09.242Z,13.19
2023-06-04T02:07:40.236Z,13.19
2023-06-04T02:10:09.095Z,13.13
2023-06-04T02:12:41.021Z,13.28
2023-06-04T02:15:08.589Z,13.25
2023-06-04T02:17:38.590Z,13.12
2023-06-04T02:20:06.938Z,12.98
2023-06-04T02:22:33.411Z,13.18
2023-06-04T02:24:59.830Z,13.11
2023-06-04T02:27:26.322Z,12.64
2023-06-04T02:29:52.788Z,13.10
2023-06-04T02:32:19.282Z,13.06
2023-06-04T02:34:45.786Z,13.04
2023-06-04T02:37:12.388Z,12.97
2023-06-04T02:39:38.848Z,12.96
2023-06-04T02:42:05.836Z,12.76
2023-06-04T02:44:32.337Z,12.80
2023-06-04T02:46:59.015Z,12.92
2023-06-04T02:49:26.110Z,12.82
2023-06-04T02:51:52.566Z,12.67
2023-06-04T02:54:19.028Z,12.65
2023-06-04T02:56:45.533Z,12.89
2023-06-04T02:59:14.432Z,12.55
2023-06-04T03:01:41.706Z,12.74
2023-06-04T03:04:11.082Z,12.77
2023-06-04T03:06:40.602Z,12.78
2023-06-04T03:09:08.113Z,11.69
2023-06-04T03:11:34.595Z,12.25
2023-06-04T03:14:01.096Z,12.57
2023-06-04T03:16:27.746Z,12.35
2023-06-04T03:18:54.347Z,12.54
2023-06-04T03:21:20.845Z,12.60
2023-06-04T03:23:47.353Z,12.55
2023-06-04T03:26:13.894Z,12.52
2023-06-04T03:28:41.243Z,12.27
2023-06-04T03:31:07.918Z,12.49
2023-06-04T03:33:34.568Z,12.44
2023-06-04T03:36:01.557Z,12.27
2023-06-04T03:38:28.063Z,11.65
2023-06-04T03:40:54.589Z,12.35
2023-06-04T03:43:22.021Z,12.51
2023-06-04T03:45:48.512Z,12.29
2023-06-04T03:48:14.998Z,12.25
2023-06-04T03:50:42.321Z,12.35
2023-06-04T03:53:09.033Z,12.15
2023-06-04T03:55:35.468Z,12.52
2023-06-04T03:58:01.957Z,11.83
2023-06-04T04:00:28.678Z,12.50
2023-06-04T04:02:55.304Z,12.45
2023-06-04T04:05:21.900Z,12.46
2023-06-04T04:07:49.089Z,12.47
2023-06-04T04:10:15.554Z,12.32
2023-06-04T04:12:42.135Z,11.43
2023-06-04T04:15:09.517Z,12.48
2023-06-04T04:17:36.096Z,11.99
2023-06-04T04:20:05.068Z,12.40
2023-06-04T04:22:32.341Z,12.55
2023-06-04T04:24:59.041Z,12.26
2023-06-04T04:27:25.503Z,12.67
2023-06-04T04:29:52.126Z,12.62
2023-06-04T04:32:18.623Z,12.44
2023-06-04T04:34:55.569Z,12.50
2023-06-04T04:37:22.863Z,12.76
2023-06-04T04:39:52.772Z,12.67
2023-06-04T04:42:20.256Z,12.82
2023-06-04T04:44:48.960Z,12.68
2023-06-04T04:47:16.428Z,12.92
2023-06-04T04:49:43.141Z,12.95
2023-06-04T04:52:09.650Z,12.97
2023-06-04T04:54:36.118Z,12.87
2023-06-04T04:57:13.388Z,12.48
2023-06-04T04:59:40.919Z,13.06
2023-06-04T05:02:07.634Z,13.15
2023-06-04T05:04:34.283Z,13.02
2023-06-04T05:07:00.965Z,13.02
2023-06-04T05:09:27.539Z,12.70
2023-06-04T05:11:54.068Z,13.30
2023-06-04T05:14:20.563Z,13.48
2023-06-04T05:16:49.592Z,13.22
2023-06-04T05:19:19.164Z,13.50
2023-06-04T05:21:45.670Z,13.53
2023-06-04T05:24:12.181Z,13.35
2023-06-04T05:26:40.689Z,13.42
2023-06-04T05:29:08.616Z,13.40
2023-06-04T05:31:35.920Z,13.38
2023-06-04T05:34:03.010Z,13.82
2023-06-04T05:36:31.324Z,13.43
2023-06-04T05:38:58.767Z,13.93
2023-06-04T05:41:25.330Z,13.46
2023-06-04T05:43:51.839Z,13.60
2023-06-04T05:46:18.670Z,14.07
2023-06-04T05:48:45.140Z,13.95
2023-06-04T05:51:11.678Z,13.96
2023-06-04T05:53:38.121Z,14.30
2023-06-04T05:56:04.857Z,14.25
2023-06-04T05:58:32.232Z,14.34
2023-06-04T06:00:58.673Z,14.46
2023-06-04T06:03:25.233Z,14.28
2023-06-04T06:05:51.984Z,14.57
2023-06-04T06:08:18.477Z,14.95
2023-06-04T06:10:44.934Z,15.18
2023-06-04T06:13:11.656Z,15.13
2023-06-04T06:15:38.134Z,15.52
2023-06-04T06:18:04.995Z,15.88
2023-06-04T06:20:31.589Z,16.23
2023-06-04T06:22:58.105Z,16.66
2023-06-04T06:25:24.659Z,17.15
2023-06-04T06:27:51.201Z,17.46
2023-06-04T06:30:18.463Z,17.73
2023-06-04T06:32:44.954Z,18.30
2023-06-04T06:35:11.437Z,18.61
2023-06-04T06:37:42.937Z,18.90
2023-06-04T06:40:10.029Z,19.31
2023-06-04T06:42:36.473Z,19.41
2023-06-04T06:45:03.101Z,19.68
2023-06-04T06:47:29.670Z,19.75
2023-06-04T06:49:56.302Z,19.97
2023-06-04T06:52:22.765Z,20.30
2023-06-04T06:54:49.273Z,20.59
2023-06-04T06:57:16.161Z,19.98
2023-06-04T06:59:42.620Z,20.34
2023-06-04T07:02:09.111Z,20.77
2023-06-04T07:04:37.406Z,20.28
2023-06-04T07:07:04.212Z,20.42
2023-06-04T07:09:30.821Z,20.84
2023-06-04T07:11:57.297Z,20.52
2023-06-04T07:14:23.760Z,20.33
2023-06-04T07:16:50.332Z,20.41
2023-06-04T07:19:16.848Z,20.14
2023-06-04T07:21:43.335Z,20.58
2023-06-04T07:24:09.977Z,20.34
2023-06-04T07:26:36.720Z,19.63
2023-06-04T07:29:03.449Z,20.18
2023-06-04T07:31:29.965Z,20.13
2023-06-04T07:33:56.475Z,20.09
2023-06-04T07:36:23.783Z,19.86
2023-06-04T07:38:50.353Z,20.48
2023-06-04T07:41:16.936Z,21.10
2023-06-04T07:43:44.398Z,20.91
2023-06-04T07:46:11.939Z,21.50
2023-06-04T07:48:38.407Z,21.76
2023-06-04T07:51:08.131Z,21.68
2023-06-04T07:53:34.786Z,20.90
2023-06-04T07:56:01.312Z,20.57
2023-06-04T07:58:27.872Z,21.31
2023-06-04T08:00:54.489Z,20.64
2023-06-04T08:03:21.638Z,21.29
2023-06-04T08:05:49.427Z,21.31
2023-06-04T08:08:16.098Z,21.12
2023-06-04T08:10:42.865Z,21.81
2023-06-04T08:13:10.967Z,21.10
2023-06-04T08:15:40.037Z,21.59
2023-06-04T08:18:06.674Z,21.02
2023-06-04T08:20:33.198Z,21.86
2023-06-04T08:22:59.693Z,22.24
2023-06-04T08:25:26.331Z,22.43
2023-06-04T08:27:52.955Z,22.44
2023-06-04T08:30:20.410Z,22.01
2023-06-04T08:32:46.993Z,21.91
2023-06-04T08:35:13.674Z,22.20
2023-06-04T08:37:40.998Z,22.51
2023-06-04T08:40:09.844Z,22.50
2023-06-04T08:42:42.147Z,22.50
2023-06-04T08:45:17.587Z,22.64
2023-06-04T08:47:52.062Z,21.97
2023-06-04T08:50:21.901Z,22.72
2023-06-04T08:52:49.385Z,22.67
2023-06-04T08:55:16.076Z,22.50
2023-06-04T08:57:42.671Z,22.19
2023-06-04T09:00:10.774Z,23.08
2023-06-04T09:02:38.852Z,23.17
2023-06-04T09:05:10.117Z,23.63
2023-06-04T09:07:40.477Z,23.40
2023-06-04T09:10:13.858Z,23.47
2023-06-04T09:12:47.506Z,23.88
2023-06-04T09:15:14.378Z,22.98
2023-06-04T09:17:40.968Z,22.91
2023-06-04T09:20:10.781Z,23.05
2023-06-04T09:22:38.628Z,23.01
2023-06-04T09:25:08.304Z,22.20
2023-06-04T09:27:41.428Z,22.54
2023-06-04T09:30:11.445Z,22.24
2023-06-04T09:32:38.074Z,22.14
2023-06-04T09:35:15.816Z,22.20
2023-06-04T09:37:43.393Z,21.81
2023-06-04T09:40:10.609Z,21.98
2023-06-04T09:42:43.831Z,22.07
2023-06-04T09:45:10.960Z,22.62
2023-06-04T09:47:44.413Z,22.22
2023-06-04T09:50:14.546Z,21.98
2023-06-04T09:52:41.800Z,22.21
2023-06-04T09:55:23.232Z,21.78
2023-06-04T09:57:53.586Z,22.21
2023-06-04T10:00:24.306Z,22.37
2023-06-04T10:02:56.935Z,21.52
2023-06-04T10:05:25.486Z,21.79
2023-06-04T10:07:55.708Z,21.81
2023-06-04T10:10:26.635Z,22.11
2023-06-04T10:13:03.611Z,22.46
2023-06-04T10:15:30.419Z,22.82
2023-06-04T10:17:57.493Z,22.82
2023-06-04T10:20:24.709Z,23.15
2023-06-04T10:22:51.702Z,22.70
2023-06-04T10:25:19.342Z,23.13
2023-06-04T10:27:47.559Z,23.00
2023-06-04T10:30:14.257Z,22.68
2023-06-04T10:32:41.915Z,22.93
2023-06-04T10:35:09.191Z,22.89
2023-06-04T10:37:36.100Z,23.25
2023-06-04T10:40:05.738Z,22.49
2023-06-04T10:42:40.301Z,22.47
2023-06-04T10:45:14.626Z,22.79
2023-06-04T10:47:42.673Z,21.95
2023-06-04T10:50:56.234Z,22.47
2023-06-04T10:53:23.915Z,22.71
2023-06-04T10:55:54.365Z,22.72
2023-06-04T10:58:22.067Z,22.87
2023-06-04T11:01:04.672Z,23.75
2023-06-04T11:03:38.483Z,23.52
2023-06-04T11:06:16.943Z,23.14
2023-06-04T11:08:46.131Z,23.08
2023-06-04T11:11:16.764Z,23.61
2023-06-04T11:13:44.813Z,22.65
2023-06-04T11:16:18.964Z,23.76
2023-06-04T11:18:55.736Z,22.30
2023-06-04T11:21:22.680Z,23.39
2023-06-04T11:23:49.584Z,23.21
2023-06-04T11:26:16.118Z,23.61
2023-06-04T11:28:44.349Z,22.97
2023-06-04T11:31:11.376Z,23.38
2023-06-04T11:33:46.139Z,23.62
2023-06-04T11:36:29.720Z,23.96
2023-06-04T11:38:57.772Z,23.98
2023-06-04T11:41:28.013Z,23.89
2023-06-04T11:43:54.429Z,24.23
2023-06-04T11:46:21.663Z,23.89
2023-06-04T11:48:48.215Z,23.78
2023-06-04T11:51:14.725Z,24.05
2023-06-04T11:53:41.700Z,24.09
2023-06-04T11:56:08.472Z,24.29
2023-06-04T11:58:35.478Z,24.29
2023-06-04T12:01:02.236Z,24.45
2023-06-04T12:03:38.561Z,24.69
2023-06-04T12:06:18.632Z,24.68
2023-06-04T12:08:55.727Z,24.29
2023-06-04T12:11:35.939Z,24.64
2023-06-04T12:14:05.215Z,24.86
2023-06-04T12:16:32.193Z,24.91
2023-06-04T12:19:09.761Z,24.92
2023-06-04T12:21:36.882Z,25.10
2023-06-04T12:24:07.008Z,24.74
2023-06-04T12:26:38.926Z,25.10
2023-06-04T12:29:13.069Z,24.44
2023-06-04T12:31:44.148Z,25.06
2023-06-04T12:34:12.587Z,24.87
2023-06-04T12:36:39.398Z,24.74
2023-06-04T12:39:06.616Z,24.84
2023-06-04T12:41:37.593Z,24.61
2023-06-04T12:44:04.145Z,25.17
2023-06-04T12:46:30.664Z,25.09
2023-06-04T12:48:57.144Z,24.83
2023-06-04T12:51:23.789Z,25.14
2023-06-04T12:53:50.477Z,24.55
2023-06-04T12:56:17.178Z,25.10
2023-06-04T12:58:43.870Z,24.86
2023-06-04T13:01:11.230Z,25.27
2023-06-04T13:03:39.689Z,24.62
2023-06-04T13:06:06.785Z,23.78
2023-06-04T13:08:34.557Z,24.41
2023-06-04T13:11:02.603Z,25.33
2023-06-04T13:13:29.614Z,25.21
2023-06-04T13:15:56.321Z,24.30
2023-06-04T13:18:23.494Z,24.67
2023-06-04T13:20:50.536Z,25.27
2023-06-04T13:23:17.470Z,24.66
2023-06-04T13:25:44.257Z,25.39
2023-06-04T13:28:10.742Z,24.65
2023-06-04T13:30:40.219Z,25.62
2023-06-04T13:33:07.205Z,25.63
2023-06-04T13:35:33.971Z,25.61
2023-06-04T13:38:00.717Z,25.59
2023-06-04T13:40:27.236Z,25.72
2023-06-04T13:42:53.742Z,25.40
2023-06-04T13:45:21.280Z,25.48
2023-06-04T13:47:54.388Z,25.51
2023-06-04T13:50:22.483Z,24.85
2023-06-04T13:52:49.034Z,25.32
2023-06-04T13:55:15.488Z,25.42
2023-06-04T13:57:41.975Z,25.51
2023-06-04T14:00:09.216Z,25.53
2023-06-04T14:02:36.110Z,25.43
2023-06-04T14:05:02.750Z,24.54
2023-06-04T14:07:29.556Z,25.52
2023-06-04T14:09:57.178Z,25.33
2023-06-04T14:12:24.423Z,25.65
2023-06-04T14:14:51.555Z,25.43
2023-06-04T14:17:18.371Z,25.15
2023-06-04T14:19:45.512Z,25.56
2023-06-04T14:22:12.983Z,25.14
2023-06-04T14:24:41.487Z,25.01
2023-06-04T14:27:07.978Z,24.48
2023-06-04T14:29:37.441Z,25.36
2023-06-04T14:32:06.874Z,25.19
2023-06-04T14:34:33.630Z,25.56
2023-06-04T14:37:01.423Z,25.50
2023-06-04T14:39:37.635Z,25.26
2023-06-04T14:42:04.779Z,23.90
2023-06-04T14:44:31.618Z,25.51
2023-06-04T14:47:00.172Z,25.71
2023-06-04T14:49:27.189Z,25.82
2023-06-04T14:51:53.651Z,25.16
2023-06-04T14:54:20.265Z,25.53
2023-06-04T14:56:46.881Z,25.36
2023-06-04T14:59:13.347Z,25.71
2023-06-04T15:01:41.852Z,25.60
2023-06-04T15:04:09.294Z,25.78
2023-06-04T15:06:36.203Z,25.26
2023-06-04T15:09:04.590Z,25.65
2023-06-04T15:11:31.304Z,25.52
2023-06-04T15:13:57.935Z,25.46
2023-06-04T15:16:24.625Z,25.59
2023-06-04T15:18:51.277Z,25.35
2023-06-04T15:21:17.966Z,25.64
2023-06-04T15:23:47.047Z,25.52
2023-06-04T15:26:13.570Z,25.31
2023-06-04T15:28:40.077Z,25.26
2023-06-04T15:31:06.856Z,25.14
2023-06-04T15:33:33.676Z,25.09
2023-06-04T15:36:00.573Z,25.64
2023-06-04T15:38:27.227Z,25.07
2023-06-04T15:40:53.740Z,25.82
2023-06-04T15:43:20.268Z,25.79
2023-06-04T15:45:46.842Z,25.20
2023-06-04T15:48:13.347Z,25.62
2023-06-04T15:50:39.822Z,25.53
2023-06-04T15:53:06.313Z,25.48
2023-06-04T15:55:33.549Z,25.27
2023-06-04T15:58:00.065Z,24.98
2023-06-04T16:00:27.023Z,24.88
2023-06-04T16:02:53.549Z,25.72
2023-06-04T16:05:20.095Z,25.39
2023-06-04T16:07:46.585Z,25.29
2023-06-04T16:10:13.050Z,25.32
2023-06-04T16:12:41.084Z,24.85
2023-06-04T16:15:07.968Z,25.05
2023-06-04T16:17:34.607Z,24.89
2023-06-04T16:20:01.346Z,25.19
2023-06-04T16:22:27.902Z,24.99
2023-06-04T16:24:54.573Z,25.30
2023-06-04T16:27:21.552Z,25.42
2023-06-04T16:29:48.049Z,24.86
2023-06-04T16:32:14.529Z,24.60
2023-06-04T16:34:41.137Z,24.68
2023-06-04T16:37:08.086Z,24.64
2023-06-04T16:39:34.907Z,24.98
2023-06-04T16:42:03.934Z,24.46
2023-06-04T16:44:30.436Z,24.91
2023-06-04T16:46:57.038Z,25.07
2023-06-04T16:49:23.565Z,24.28
2023-06-04T16:51:59.951Z,24.59
2023-06-04T16:55:05.241Z,23.54
2023-06-04T16:57:32.785Z,23.93
2023-06-04T17:00:07.082Z,24.87
2023-06-04T17:02:40.229Z,24.85
2023-06-04T17:05:16.476Z,24.70
2023-06-04T17:07:50.231Z,24.28
2023-06-04T17:10:17.832Z,24.52
2023-06-04T17:12:44.515Z,24.50
2023-06-04T17:15:11.131Z,23.84
2023-06-04T17:17:37.676Z,24.08
2023-06-04T17:20:07.061Z,23.86
2023-06-04T17:22:33.581Z,23.87
2023-06-04T17:25:00.102Z,23.97
2023-06-04T17:27:26.679Z,24.21
2023-06-04T17:29:53.145Z,23.75
2023-06-04T17:32:19.621Z,24.03
2023-06-04T17:34:46.576Z,24.16
2023-06-04T17:37:13.096Z,23.89
2023-06-04T17:39:39.744Z,23.52
2023-06-04T17:42:06.568Z,23.72
2023-06-04T17:44:33.071Z,23.70
2023-06-04T17:47:04.729Z,23.17
2023-06-04T17:49:31.319Z,22.95
2023-06-04T17:51:59.740Z,22.96
2023-06-04T17:54:26.268Z,23.35
2023-06-04T17:56:52.854Z,23.32
2023-06-04T17:59:19.377Z,23.41
2023-06-04T18:01:48.260Z,22.93
2023-06-04T18:04:14.940Z,22.52
2023-06-04T18:06:41.608Z,22.71
2023-06-04T18:09:08.145Z,23.05
2023-06-04T18:11:34.651Z,23.02
2023-06-04T18:14:01.597Z,22.50
2023-06-04T18:16:28.268Z,22.57
2023-06-04T18:18:55.745Z,23.02
2023-06-04T18:21:22.362Z,22.50
2023-06-04T18:23:52.736Z,22.69
2023-06-04T18:26:19.519Z,22.55
2023-06-04T18:28:46.079Z,22.30
2023-06-04T18:31:12.702Z,22.09
2023-06-04T18:33:53.732Z,21.09
2023-06-04T18:36:20.728Z,21.56
2023-06-04T18:38:47.251Z,21.58
2023-06-04T18:41:14.148Z,22.41
2023-06-04T18:43:40.956Z,21.78
2023-06-04T18:46:07.608Z,21.44
2023-06-04T18:48:34.484Z,21.53
2023-06-04T18:51:00.963Z,21.75
2023-06-04T18:53:27.650Z,21.42
2023-06-04T18:55:55.338Z,21.77
2023-06-04T18:58:22.020Z,21.49
2023-06-04T19:00:48.669Z,21.08
2023-06-04T19:03:15.272Z,21.15
2023-06-04T19:05:41.863Z,21.42
2023-06-04T19:08:10.049Z,21.00
2023-06-04T19:10:36.558Z,20.57
2023-06-04T19:13:03.818Z,21.08
2023-06-04T19:15:30.574Z,21.15
2023-06-04T19:17:58.847Z,20.66
2023-06-04T19:20:25.756Z,20.83
2023-06-04T19:22:52.251Z,20.37
2023-06-04T19:25:18.708Z,20.72
2023-06-04T19:27:45.634Z,20.67
2023-06-04T19:30:12.182Z,19.82
2023-06-04T19:32:38.743Z,20.47
2023-06-04T19:35:07.977Z,20.52
2023-06-04T19:37:34.604Z,19.60
2023-06-04T19:40:01.644Z,20.06
2023-06-04T19:42:28.149Z,20.38
2023-06-04T19:44:54.805Z,19.40
2023-06-04T19:48:19.137Z,20.29
2023-06-04T19:50:45.934Z,19.42
2023-06-04T19:53:12.482Z,19.23
2023-06-04T19:55:39.013Z,19.57
2023-06-04T19:58:05.520Z,19.96
2023-06-04T20:00:32.068Z,18.93
2023-06-04T20:02:58.860Z,19.50
2023-06-04T20:05:25.441Z,19.03
2023-06-04T20:07:51.919Z,19.13
2023-06-04T20:10:24.749Z,19.51
2023-06-04T20:12:54.147Z,18.10
2023-06-04T20:15:21.104Z,18.77
2023-06-04T20:17:49.404Z,18.79
2023-06-04T20:20:16.884Z,18.05
2023-06-04T20:22:44.381Z,18.38
2023-06-04T20:25:11.819Z,18.65
2023-06-04T20:27:52.945Z,17.53
2023-06-04T20:30:19.971Z,18.34
2023-06-04T20:32:47.110Z,17.86
2023-06-04T20:35:14.167Z,17.68
2023-06-04T20:37:40.760Z,18.72
2023-06-04T20:40:08.173Z,18.67
2023-06-04T20:42:34.746Z,18.00
2023-06-04T20:45:01.647Z,17.98
2023-06-04T20:47:28.370Z,17.92
2023-06-04T20:49:55.617Z,16.99
2023-06-04T20:52:22.349Z,18.42
2023-06-04T20:54:48.858Z,18.04
2023-06-04T20:57:15.362Z,17.96
2023-06-04T20:59:42.055Z,16.97
2023-06-04T21:02:08.913Z,17.63
2023-06-04T21:04:35.615Z,18.29
2023-06-04T21:07:02.644Z,18.07
2023-06-04T21:09:29.297Z,17.63
2023-06-04T21:11:55.847Z,17.57
2023-06-04T21:14:22.305Z,17.94
2023-06-04T21:16:48.856Z,17.33
2023-06-04T21:19:15.396Z,17.38
2023-06-04T21:21:41.993Z,17.05
2023-06-04T21:24:08.811Z,17.65
2023-06-04T21:26:35.374Z,17.85
2023-06-04T21:29:01.904Z,16.56
2023-06-04T21:31:28.497Z,17.43
2023-06-04T21:33:55.035Z,16.67
2023-06-04T21:36:21.552Z,16.66
2023-06-04T21:38:48.709Z,17.30
2023-06-04T21:41:15.331Z,16.31
2023-06-04T21:43:41.804Z,16.77
2023-06-04T21:46:08.870Z,17.15
2023-06-04T21:49:20.687Z,16.59
2023-06-04T21:51:47.245Z,16.61
2023-06-04T21:54:13.784Z,16.33
2023-06-04T21:56:40.265Z,16.24
2023-06-04T21:59:07.877Z,16.44
2023-06-04T22:01:34.645Z,16.97
2023-06-04T22:04:01.169Z,16.93
2023-06-04T22:06:28.647Z,16.64
2023-06-04T22:08:55.159Z,15.81
2023-06-04T22:11:22.691Z,17.04
2023-06-04T22:13:49.188Z,16.47
2023-06-04T22:16:15.845Z,15.98
2023-06-04T22:21:15.443Z,16.67
2023-06-04T22:23:42.042Z,16.91
2023-06-04T22:26:08.589Z,15.62
2023-06-04T22:28:35.106Z,15.85
2023-06-04T22:31:01.699Z,16.32
2023-06-04T22:33:30.130Z,16.57
2023-06-04T22:35:56.871Z,15.51
2023-06-04T22:38:24.782Z,16.70
2023-06-04T22:40:51.876Z,16.33
2023-06-04T22:43:18.353Z,15.99
2023-06-04T22:45:44.919Z,16.69
2023-06-04T22:48:11.529Z,15.89
2023-06-04T22:50:38.158Z,16.55
2023-06-04T22:53:09.072Z,16.06
2023-06-04T22:55:36.800Z,16.46
2023-06-04T22:58:03.710Z,16.15
2023-06-04T23:00:31.094Z,16.40
2023-06-04T23:02:57.797Z,15.65
2023-06-04T23:05:25.708Z,15.90
2023-06-04T23:07:52.741Z,15.77
2023-06-04T23:10:19.421Z,15.78
2023-06-04T23:12:46.712Z,15.64
2023-06-04T23:15:24.228Z,16.27
2023-06-04T23:17:51.594Z,15.62
2023-06-04T23:20:19.135Z,15.57
2023-06-04T23:22:46.457Z,15.67
2023-06-04T23:25:13.095Z,15.64
2023-06-04T23:27:39.630Z,14.80
2023-06-04T23:30:06.844Z,15.98
2023-06-04T23:32:33.650Z,15.59
2023-06-04T23:35:00.224Z,15.86
2023-06-04T23:37:26.774Z,15.43
2023-06-04T23:39:53.657Z,15.29
2023-06-04T23:42:20.154Z,15.64
2023-06-04T23:44:46.667Z,15.39
2023-06-04T23:47:13.238Z,14.94
2023-06-04T23:49:39.752Z,15.66
2023-06-04T23:52:06.460Z,14.92
2023-06-04T23:54:33.038Z,15.90
2023-06-04T23:56:59.877Z,15.34
2023-06-04T23:59:27.128Z,14.81
